Terminal Aerodrome Forecast
Issued by NWS

Current Version | Previous Version | Text Only | Print | Product List | Glossary Off
Versions: 1 2 3 4 5 6 7 8 9 10 11 12 13 14 15 16 17 18 19 20

999
FTUS41 KILN 181139
TAFLUK
TAF
KLUK 181139Z 1812/1912 00000KT P6SM BKN022
      TEMPO 1813/1814 5SM BR
     FM181400 14008KT P6SM FEW012 SCT250
     FM190700 18005KT P6SM OVC025
     FM190900 18008KT 3SM -SHRA BR OVC012=

USA.gov is the U.S. government's official web portal to all federal, state and local government web resources and services.